Time;durP1;ratioP1;P1;durP2;ratioP2;P2;SDS_P1;SDS_P2;PMS_P1;PMS_P2;Temp;Humidity;BMP_temperature;BMP_pressure;BME280_temperature;BME280_humidity;BME280_pressure;Samples;Min_cycle;Max_cycle;Signal;HPM_P1;HPM_P2
2022/09/18 00:01:45;;;;;;;8.98;2.05;;;;;;;9.75;100.00;101501.00;5133967;27;20100;-89
2022/09/18 00:04:15;;;;;;;9.70;2.33;;;;;;;9.77;100.00;101488.13;5135304;27;20030;-88
2022/09/18 00:06:44;;;;;;;13.60;3.67;;;;;;;9.78;100.00;101488.94;5134142;27;20031;-90
2022/09/18 00:09:23;;;;;;;14.63;3.20;;;;;;;9.79;100.00;101493.34;5134336;27;20023;-89
2022/09/18 00:11:50;;;;;;;11.48;3.20;;;;;;;9.77;100.00;101496.25;5118337;27;20031;-89
2022/09/18 00:14:22;;;;;;;11.77;3.50;;;;;;;9.76;100.00;101499.16;5134547;27;20050;-89
2022/09/18 00:17:01;;;;;;;11.77;3.70;;;;;;;9.80;100.00;101497.72;5135847;27;20344;-89
2022/09/18 00:19:27;;;;;;;13.07;3.63;;;;;;;9.79;100.00;101490.63;5134488;27;20031;-88
2022/09/18 00:21:55;;;;;;;13.40;3.38;;;;;;;9.78;100.00;101492.50;5133901;27;20386;-88
2022/09/18 00:24:31;;;;;;;7.22;3.30;;;;;;;9.81;100.00;101491.25;5117169;27;20031;-88
2022/09/18 00:26:59;;;;;;;11.60;3.50;;;;;;;9.79;100.00;101482.50;5116864;27;20035;-89
2022/09/18 00:29:27;;;;;;;11.80;3.00;;;;;;;9.80;100.00;101481.44;5133842;27;20034;-88
2022/09/18 00:32:00;;;;;;;11.85;3.45;;;;;;;9.77;100.00;101480.00;5117000;27;20039;-88
2022/09/18 00:34:37;;;;;;;15.60;3.22;;;;;;;9.81;100.00;101480.44;5134432;27;20085;-88
2022/09/18 00:37:11;;;;;;;10.75;2.90;;;;;;;9.78;100.00;101478.09;5101260;27;20035;-88
2022/09/18 00:39:37;;;;;;;10.70;3.27;;;;;;;9.78;100.00;101476.22;5116355;27;20042;-88
2022/09/18 00:42:14;;;;;;;8.77;3.45;;;;;;;9.80;100.00;101489.59;5133099;27;20043;-88
2022/09/18 00:44:58;;;;;;;9.88;3.90;;;;;;;9.78;100.00;101480.81;5116975;27;20079;-89
2022/09/18 00:47:34;;;;;;;13.37;3.87;;;;;;;9.79;100.00;101493.34;5134822;27;20039;-88
2022/09/18 00:50:06;;;;;;;11.98;3.80;;;;;;;9.84;100.00;101489.00;5133803;27;20061;-89
2022/09/18 00:52:53;;;;;;;;;;;;;;;;;;;;;
2022/09/18 00:55:23;;;;;;;9.70;3.75;;;;;;;9.80;100.00;101478.75;5135657;27;20031;-88
2022/09/18 00:57:55;;;;;;;7.88;3.88;;;;;;;9.81;100.00;101481.25;5134713;27;20066;-88
2022/09/18 01:00:30;;;;;;;9.90;3.35;;;;;;;9.79;100.00;101477.09;5133413;28;20031;-88
2022/09/18 01:03:04;;;;;;;13.88;3.78;;;;;;;9.79;100.00;101477.91;5133460;28;20064;-88
2022/09/18 01:06:06;;;;;;;12.45;3.90;;;;;;;9.78;100.00;101486.25;5133670;28;20053;-88
2022/09/18 01:08:52;;;;;;;9.95;4.13;;;;;;;9.77;100.00;101490.84;5133341;28;20041;-88
2022/09/18 01:11:45;;;;;;;12.93;3.75;;;;;;;9.77;100.00;101490.84;5134484;27;20034;-88
2022/09/18 01:15:00;;;;;;;13.27;4.10;;;;;;;9.78;100.00;101489.78;5133126;28;20023;-88
2022/09/18 01:17:35;;;;;;;9.48;3.50;;;;;;;9.79;100.00;101496.88;5133602;28;20027;-87
2022/09/18 01:20:34;;;;;;;12.52;3.67;;;;;;;9.84;100.00;101494.41;5133310;28;20035;-87
2022/09/18 01:23:36;;;;;;;10.68;3.45;;;;;;;9.84;100.00;101489.00;5134865;28;20091;-88
2022/09/18 01:26:20;;;;;;;10.18;3.30;;;;;;;9.84;100.00;101491.69;5136459;27;20059;-87
2022/09/18 01:28:59;;;;;;;11.33;3.43;;;;;;;9.86;100.00;101488.78;5138709;27;20114;-88
2022/09/18 01:31:34;;;;;;;9.40;3.38;;;;;;;9.88;100.00;101488.63;5137512;27;20355;-88
2022/09/18 01:34:14;;;;;;;11.52;3.75;;;;;;;9.86;100.00;101488.78;5136294;27;20518;-88
2022/09/18 01:36:48;;;;;;;15.00;3.85;;;;;;;9.88;100.00;101477.78;5137531;27;20035;-88
2022/09/18 01:39:24;;;;;;;9.13;3.90;;;;;;;9.89;100.00;101491.16;5138487;27;20027;-88
2022/09/18 01:41:55;;;;;;;14.07;3.97;;;;;;;9.89;100.00;101483.00;5136892;27;20109;-88
2022/09/18 01:44:30;;;;;;;10.20;3.70;;;;;;;9.83;100.00;101475.63;5120679;27;20085;-88
2022/09/18 01:47:11;;;;;;;11.43;4.10;;;;;;;9.83;100.00;101481.91;5137898;27;20031;-88
2022/09/18 01:49:46;;;;;;;9.45;4.03;;;;;;;9.76;100.00;101485.59;5137269;27;20493;-88
2022/09/18 01:52:23;;;;;;;9.80;4.05;;;;;;;9.77;100.00;101480.00;5136661;27;20019;-88
2022/09/18 01:54:54;;;;;;;9.17;4.17;;;;;;;9.73;100.00;101484.13;5137422;27;20046;-88
2022/09/18 01:57:24;;;;;;;8.70;4.43;;;;;;;9.72;100.00;101468.06;5137104;27;20039;-88
2022/09/18 02:00:07;;;;;;;12.95;4.22;;;;;;;9.72;100.00;101466.16;5137629;27;20418;-88
2022/09/18 02:03:04;;;;;;;13.40;4.00;;;;;;;9.69;100.00;101463.84;5136893;27;20454;-88
2022/09/18 02:05:36;;;;;;;12.48;4.32;;;;;;;9.68;100.00;101459.47;5102884;27;20046;-88
2022/09/18 02:08:25;;;;;;;13.90;4.50;;;;;;;9.71;100.00;101460.94;5136869;27;20031;-90
2022/09/18 02:11:07;;;;;;;13.27;4.80;;;;;;;9.74;100.00;101460.56;5137439;27;20125;-88
2022/09/18 02:13:41;;;;;;;12.30;4.68;;;;;;;9.75;100.00;101465.78;5136457;27;20035;-88
2022/09/18 02:16:22;;;;;;;17.20;4.35;;;;;;;9.75;100.00;101457.66;5136424;27;20455;-88
2022/09/18 02:18:51;;;;;;;16.02;4.00;;;;;;;9.80;100.00;101459.78;5136088;27;20027;-88
2022/09/18 02:21:23;;;;;;;13.00;4.33;;;;;;;9.81;100.00;101458.75;5137182;27;20038;-88
2022/09/18 02:23:49;;;;;;;14.77;4.53;;;;;;;9.81;100.00;101448.72;5136447;27;20023;-88
2022/09/18 02:26:27;;;;;;;;;;;;;;;;;;;;;
2022/09/18 02:28:57;;;;;;;13.95;4.43;;;;;;;9.80;100.00;101447.06;5138347;27;20457;-88
2022/09/18 02:31:28;;;;;;;12.45;3.50;;;;;;;9.81;100.00;101447.91;5135769;27;20038;-88
2022/09/18 02:33:57;;;;;;;12.03;3.40;;;;;;;9.84;100.00;101447.50;5137638;27;20023;-88
2022/09/18 02:36:42;;;;;;;15.35;3.25;;;;;;;9.86;100.00;101441.88;5134519;27;20035;-88
2022/09/18 02:39:33;;;;;;;9.00;2.92;;;;;;;9.84;100.00;101442.91;5136633;27;20027;-88
2022/09/18 02:42:04;;;;;;;15.38;3.35;;;;;;;9.89;100.00;101446.91;5136140;27;20085;-88
2022/09/18 02:44:49;;;;;;;15.20;3.30;;;;;;;9.90;100.00;101446.72;5135398;27;20062;-88
2022/09/18 02:47:51;;;;;;;12.73;2.67;;;;;;;9.91;100.00;101442.16;5136162;27;20038;-88
2022/09/18 02:50:39;;;;;;;13.60;2.80;;;;;;;9.91;100.00;101451.13;5136397;27;20393;-88
2022/09/18 02:53:18;;;;;;;9.82;3.22;;;;;;;9.94;100.00;101447.19;5135943;27;20057;-88
2022/09/18 02:55:59;;;;;;;14.52;3.00;;;;;;;9.98;100.00;101441.16;5135961;27;20520;-88
2022/09/18 02:58:31;;;;;;;16.13;2.65;;;;;;;9.97;100.00;101431.34;5136686;27;20459;-88
2022/09/18 03:01:09;;;;;;;10.13;2.70;;;;;;;10.00;100.00;101436.38;5135883;27;20088;-88
2022/09/18 03:03:37;;;;;;;13.30;2.60;;;;;;;10.01;100.00;101429.09;5136805;27;20035;-88
2022/09/18 03:06:04;;;;;;;10.40;2.42;;;;;;;10.02;100.00;101438.88;5135461;27;20458;-89
2022/09/18 03:08:35;;;;;;;12.93;2.45;;;;;;;10.01;100.00;101440.78;5135075;27;20467;-88
2022/09/18 03:11:01;;;;;;;15.55;2.95;;;;;;;10.03;100.00;101428.91;5136958;27;20023;-88
2022/09/18 03:13:26;;;;;;;12.50;2.27;;;;;;;10.04;100.00;101423.28;5135117;27;20038;-88
2022/09/18 03:15:56;;;;;;;22.27;3.10;;;;;;;10.02;100.00;101425.34;5135341;27;20027;-89
2022/09/18 03:18:25;;;;;;;12.90;2.10;;;;;;;10.04;100.00;101431.41;5135039;27;20122;-89
2022/09/18 03:20:55;;;;;;;12.77;2.20;;;;;;;10.09;100.00;101434.34;5101630;27;20035;-89
2022/09/18 03:23:22;;;;;;;14.50;2.88;;;;;;;10.05;100.00;101421.41;5118078;27;20462;-88
2022/09/18 03:25:49;;;;;;;8.57;1.70;;;;;;;10.04;100.00;101426.00;5117898;27;20035;-88
2022/09/18 03:28:26;;;;;;;15.88;2.20;;;;;;;10.07;100.00;101433.72;5134716;27;20122;-89
2022/09/18 03:31:01;;;;;;;11.30;2.20;;;;;;;10.09;100.00;101439.78;5134989;27;20027;-89
2022/09/18 03:33:29;;;;;;;14.52;2.20;;;;;;;10.08;100.00;101427.25;5135320;27;20088;-89
2022/09/18 03:35:57;;;;;;;11.63;1.75;;;;;;;10.08;100.00;101429.97;5118105;27;20035;-89
2022/09/18 03:38:25;;;;;;;10.83;2.20;;;;;;;10.10;100.00;101421.66;5136248;27;20054;-90
2022/09/18 03:40:51;;;;;;;14.15;1.65;;;;;;;10.08;100.00;101421.81;5117669;27;20095;-89
2022/09/18 03:43:19;;;;;;;7.60;1.80;;;;;;;10.06;100.00;101423.91;5134907;27;20451;-90
2022/09/18 03:45:45;;;;;;;8.07;1.60;;;;;;;10.05;100.00;101424.94;5134754;27;20300;-89
2022/09/18 03:48:14;;;;;;;12.18;1.38;;;;;;;10.05;100.00;101419.50;5134270;27;20531;-89
2022/09/18 03:50:47;;;;;;;11.53;1.87;;;;;;;10.04;100.00;101417.00;5135664;27;20104;-89
2022/09/18 03:53:12;;;;;;;7.13;1.13;;;;;;;10.01;100.00;101410.94;5118244;27;20068;-89
2022/09/18 03:55:38;;;;;;;7.95;1.73;;;;;;;9.97;100.00;101414.25;5134447;27;20031;-89
2022/09/18 03:58:04;;;;;;;8.40;1.27;;;;;;;9.92;100.00;101403.16;5133925;27;20121;-89
2022/09/18 04:00:35;;;;;;;9.02;1.73;;;;;;;9.90;100.00;101397.09;5117238;27;20039;-89
2022/09/18 04:03:01;;;;;;;10.32;1.25;;;;;;;9.87;100.00;101402.91;5134017;27;20056;-89
2022/09/18 04:05:31;;;;;;;7.37;1.33;;;;;;;9.87;100.00;101400.22;5134451;27;20412;-89
2022/09/18 04:07:59;;;;;;;8.63;1.52;;;;;;;9.86;100.00;101398.53;5118335;27;20401;-89
2022/09/18 04:10:25;;;;;;;6.07;1.00;;;;;;;9.81;100.00;101394.53;5134317;27;20027;-88
2022/09/18 04:12:52;;;;;;;8.90;0.90;;;;;;;9.81;100.00;101404.53;5134059;27;20053;-89
2022/09/18 04:15:18;;;;;;;9.82;1.73;;;;;;;9.75;100.00;101394.50;5133787;27;20039;-88
2022/09/18 04:17:46;;;;;;;7.78;1.00;;;;;;;9.70;100.00;101396.94;5135276;27;20081;-89
2022/09/18 04:20:19;;;;;;;6.72;1.33;;;;;;;9.68;100.00;101396.31;5134677;27;20118;-88
2022/09/18 04:22:52;;;;;;;12.23;1.30;;;;;;;9.69;100.00;101401.53;5134327;27;20031;-89
2022/09/18 04:25:35;;;;;;;5.38;1.20;;;;;;;9.69;100.00;101401.53;5117607;27;20100;-89
2022/09/18 04:28:12;;;;;;;9.43;1.65;;;;;;;9.70;100.00;101399.66;5134716;27;20050;-89
2022/09/18 04:30:47;;;;;;;9.52;1.17;;;;;;;9.69;100.00;101406.94;5117616;27;20469;-88
2022/09/18 04:33:21;;;;;;;9.20;1.25;;;;;;;9.69;100.00;101400.72;5134173;27;20035;-89
2022/09/18 04:35:51;;;;;;;7.20;1.10;;;;;;;9.68;100.00;101407.97;5134260;27;20455;-89
2022/09/18 04:38:26;;;;;;;10.98;1.20;;;;;;;9.65;100.00;101406.53;5116720;27;20114;-89
2022/09/18 04:40:59;;;;;;;9.15;1.38;;;;;;;9.65;100.00;101408.38;5134251;27;20028;-89
2022/09/18 04:43:26;;;;;;;7.97;0.90;;;;;;;9.64;100.00;101412.97;5133927;27;20126;-89
2022/09/18 04:45:56;;;;;;;8.90;1.50;;;;;;;9.64;100.00;101415.66;5137801;27;20038;-89
2022/09/18 04:48:27;;;;;;;9.17;1.17;;;;;;;9.61;100.00;101410.66;5137810;27;20026;-89
2022/09/18 04:50:56;;;;;;;9.20;1.30;;;;;;;9.62;100.00;101409.59;5137204;27;20083;-89
2022/09/18 04:53:34;;;;;;;13.10;1.38;;;;;;;9.63;100.00;101415.88;5136917;27;20449;-89
2022/09/18 04:55:59;;;;;;;7.20;1.50;;;;;;;9.64;100.00;101412.09;5137295;27;20154;-89
2022/09/18 04:58:25;;;;;;;9.13;1.60;;;;;;;9.66;100.00;101420.88;5136465;27;20046;-88
2022/09/18 05:00:53;;;;;;;14.13;2.13;;;;;;;9.65;100.00;101411.94;5136659;27;20452;-89
2022/09/18 05:03:27;;;;;;;18.67;1.73;;;;;;;9.65;100.00;101403.81;5136819;27;20110;-89
2022/09/18 05:05:57;;;;;;;7.13;1.55;;;;;;;9.67;100.00;101411.75;5136782;27;20026;-89
2022/09/18 05:08:28;;;;;;;7.43;1.60;;;;;;;9.68;100.00;101401.72;5136535;27;20065;-88
2022/09/18 05:10:56;;;;;;;11.85;1.80;;;;;;;9.69;100.00;101398.81;5155160;27;20038;-89
2022/09/18 05:13:22;;;;;;;6.47;1.30;;;;;;;9.71;100.00;101382.38;5119914;27;20027;-89
2022/09/18 05:15:51;;;;;;;7.82;1.40;;;;;;;9.69;100.00;101389.88;5136560;27;20375;-89
2022/09/18 05:18:21;;;;;;;10.50;1.60;;;;;;;9.71;100.00;101394.03;5119969;27;20386;-89
2022/09/18 05:20:49;;;;;;;6.78;1.20;;;;;;;9.74;100.00;101403.66;5120246;27;20046;-89
2022/09/18 05:23:40;;;;;;;12.80;2.05;;;;;;;9.75;100.00;101413.47;5136661;27;20030;-89
2022/09/18 05:26:06;;;;;;;8.37;1.27;;;;;;;9.75;100.00;101414.28;5112122;27;20397;-89
2022/09/18 05:28:34;;;;;;;12.38;1.73;;;;;;;9.76;100.00;101398.88;5155519;27;20018;-91
2022/09/18 05:31:02;;;;;;;12.25;1.77;;;;;;;9.75;100.00;101408.03;5136562;27;20037;-90
2022/09/18 05:33:28;;;;;;;8.67;1.47;;;;;;;9.75;100.00;101416.19;5136545;27;20027;-87
2022/09/18 05:35:57;;;;;;;11.85;1.88;;;;;;;9.80;100.00;101422.69;5155363;27;20079;-83
2022/09/18 05:38:26;;;;;;;11.90;1.58;;;;;;;9.80;100.00;101427.25;5136480;27;20458;-83
2022/09/18 05:40:52;;;;;;;9.35;1.63;;;;;;;9.90;100.00;101422.31;5136454;27;20040;-82
2022/09/18 05:43:17;;;;;;;11.60;1.73;;;;;;;9.89;100.00;101428.81;5136593;27;20075;-82
2022/09/18 05:45:45;;;;;;;11.05;1.90;;;;;;;9.88;100.00;101415.44;5136163;27;20046;-82
2022/09/18 05:48:12;;;;;;;8.75;1.65;;;;;;;9.86;100.00;101410.19;5136796;27;20042;-82
2022/09/18 05:50:37;;;;;;;10.47;1.90;;;;;;;9.87;100.00;101411.06;5119408;27;20481;-82
2022/09/18 05:53:07;;;;;;;7.57;1.70;;;;;;;9.94;100.00;101414.66;5136297;27;20035;-82
2022/09/18 05:55:33;;;;;;;12.40;2.40;;;;;;;9.94;100.00;101418.19;5136461;27;20058;-82
2022/09/18 05:58:00;;;;;;;9.23;1.92;;;;;;;9.96;100.00;101421.53;5154588;27;20382;-82
2022/09/18 06:00:27;;;;;;;12.57;2.23;;;;;;;9.98;100.00;101415.91;5154926;27;20075;-81
2022/09/18 06:02:54;;;;;;;15.35;2.38;;;;;;;10.03;100.00;101409.91;5154879;27;20042;-82
2022/09/18 06:05:21;;;;;;;19.52;2.80;;;;;;;10.06;100.00;101410.34;5135941;27;20033;-82
2022/09/18 06:07:46;;;;;;;7.00;2.10;;;;;;;10.08;100.00;101412.88;5135942;27;20022;-82
2022/09/18 06:10:12;;;;;;;8.97;2.30;;;;;;;10.05;100.00;101405.97;5155570;27;20026;-82
2022/09/18 06:12:37;;;;;;;8.48;2.28;;;;;;;10.05;100.00;101405.13;5139965;27;20033;-82
2022/09/18 06:15:03;;;;;;;9.63;2.17;;;;;;;10.05;100.00;101391.56;5139968;27;20027;-82
2022/09/18 06:17:31;;;;;;;9.02;2.28;;;;;;;10.06;100.00;101398.69;5140090;27;20386;-82
2022/09/18 06:19:58;;;;;;;7.45;2.40;;;;;;;10.06;100.00;101406.81;5122705;27;20054;-82
2022/09/18 06:22:23;;;;;;;10.60;1.90;;;;;;;10.11;100.00;101401.63;5159037;27;20030;-82
2022/09/18 06:24:48;;;;;;;12.35;2.40;;;;;;;10.15;100.00;101402.91;5140165;27;20084;-82
2022/09/18 06:27:14;;;;;;;9.83;2.50;;;;;;;10.22;100.00;101406.50;5140096;27;20407;-82
2022/09/18 06:29:39;;;;;;;11.63;2.43;;;;;;;10.22;100.00;101405.66;5157945;27;20035;-82
2022/09/18 06:32:05;;;;;;;12.77;2.80;;;;;;;10.25;100.00;101402.56;5123246;27;20121;-84
2022/09/18 06:34:33;;;;;;;11.53;2.70;;;;;;;10.30;100.00;101397.34;5139388;27;20121;-82
2022/09/18 06:36:59;;;;;;;8.47;2.60;;;;;;;10.33;100.00;101395.13;5139598;27;20324;-82
2022/09/18 06:39:24;;;;;;;10.25;3.15;;;;;;;10.41;100.00;101398.69;5139330;27;20470;-82
2022/09/18 06:41:50;;;;;;;15.30;2.97;;;;;;;10.40;100.00;101389.72;5139302;27;20018;-82
2022/09/18 06:44:18;;;;;;;9.77;2.83;;;;;;;10.43;100.00;101381.19;5122145;27;20050;-82
2022/09/18 06:46:49;;;;;;;9.95;3.20;;;;;;;10.42;100.00;101392.22;5157860;27;20034;-87
2022/09/18 06:49:14;;;;;;;11.77;2.53;;;;;;;10.41;100.00;101398.69;5139653;27;20106;-86
2022/09/18 06:51:40;;;;;;;13.27;2.93;;;;;;;10.51;100.00;101401.88;5139333;27;20113;-86
2022/09/18 06:54:05;;;;;;;12.90;2.55;;;;;;;10.48;100.00;101399.56;5139315;27;20046;-86
2022/09/18 06:56:30;;;;;;;12.17;2.50;;;;;;;10.55;100.00;101399.59;5157547;27;20473;-86
2022/09/18 06:58:56;;;;;;;12.80;2.83;;;;;;;10.56;100.00;101393.97;5138842;27;20500;-86
2022/09/18 07:01:24;;;;;;;15.87;2.40;;;;;;;10.62;100.00;101393.16;5138739;27;20533;-86
2022/09/18 07:03:52;;;;;;;13.63;2.30;;;;;;;10.64;100.00;101391.06;5121972;27;20038;-86
2022/09/18 07:06:20;;;;;;;9.18;2.10;;;;;;;10.64;100.00;101395.66;5139388;27;20398;-85
2022/09/18 07:08:52;;;;;;;10.52;2.00;;;;;;;10.72;100.00;101400.94;5121721;27;20034;-85
2022/09/18 07:11:18;;;;;;;9.60;2.10;;;;;;;10.73;100.00;101402.59;5157143;27;20027;-86
2022/09/18 07:13:46;;;;;;;8.83;2.10;;;;;;;10.76;100.00;101395.94;5121739;27;20095;-86
2022/09/18 07:16:14;;;;;;;9.43;2.33;;;;;;;10.78;100.00;101400.13;5138989;27;20030;-86
2022/09/18 07:18:40;;;;;;;13.25;2.45;;;;;;;10.81;100.00;101388.03;5122298;27;20050;-86
2022/09/18 07:21:09;;;;;;;9.50;2.20;;;;;;;10.88;100.00;101395.16;5121821;27;20130;-86
2022/09/18 07:23:37;;;;;;;6.68;2.45;;;;;;;10.87;100.00;101390.75;5104473;27;20026;-86
2022/09/18 07:26:22;;;;;;;;;;;;;;;;;;;;;
2022/09/18 07:28:48;;;;;;;11.15;1.80;;;;;;;10.90;100.00;101377.81;5157035;27;20025;-86
2022/09/18 07:31:13;;;;;;;11.60;2.57;;;;;;;10.93;100.00;101363.84;5138149;27;20117;-86
2022/09/18 07:33:41;;;;;;;9.27;2.23;;;;;;;10.96;100.00;101358.81;5138157;27;20280;-86
2022/09/18 07:36:15;;;;;;;10.13;1.85;;;;;;;11.02;100.00;101370.75;5138054;27;20473;-86
2022/09/18 07:38:43;;;;;;;10.67;2.27;;;;;;;11.04;100.00;101365.94;5138572;27;20378;-86
2022/09/18 07:41:09;;;;;;;9.23;2.03;;;;;;;11.11;100.00;101372.22;5121007;27;20462;-86
2022/09/18 07:43:38;;;;;;;8.52;1.77;;;;;;;11.14;100.00;101373.69;5119980;27;20031;-86
2022/09/18 07:46:06;;;;;;;9.57;2.43;;;;;;;11.22;100.00;101368.91;5138306;27;20030;-86
2022/09/18 07:48:35;;;;;;;7.15;2.08;;;;;;;11.33;100.00;101375.59;5138018;27;20091;-86
2022/09/18 07:53:52;;;;;;;5.13;2.03;;;;;;;11.45;100.00;101370.38;5157013;27;20039;-87
2022/09/18 07:56:23;;;;;;;7.43;2.38;;;;;;;11.65;100.00;101367.66;5137467;27;20463;-87
2022/09/18 07:58:49;;;;;;;4.43;1.70;;;;;;;11.72;100.00;101373.06;5137735;27;20122;-87
2022/09/18 08:01:15;;;;;;;11.80;2.53;;;;;;;11.75;100.00;101373.50;5156306;27;20054;-86
2022/09/18 08:03:40;;;;;;;8.77;1.97;;;;;;;11.88;100.00;101374.53;5120283;27;20042;-86
2022/09/18 08:06:16;;;;;;;7.23;1.53;;;;;;;12.04;100.00;101362.41;5120698;27;20022;-87
2022/09/18 08:08:42;;;;;;;13.55;2.22;;;;;;;12.14;100.00;101361.97;5097347;28;20039;-86
2022/09/18 08:11:07;;;;;;;6.83;1.57;;;;;;;12.16;100.00;101365.31;5095432;28;20084;-85
2022/09/18 08:13:33;;;;;;;6.55;1.20;;;;;;;12.26;100.00;101365.69;5112959;28;20047;-86
2022/09/18 08:15:58;;;;;;;6.70;1.67;;;;;;;12.31;100.00;101351.44;5095285;28;20027;-86
2022/09/18 08:18:24;;;;;;;5.23;1.30;;;;;;;12.27;100.00;101348.34;5095350;28;20054;-87
2022/09/18 08:20:54;;;;;;;8.27;2.28;;;;;;;12.26;100.00;101371.16;5078510;28;20126;-87
2022/09/18 08:23:23;;;;;;;3.63;1.10;;;;;;;12.06;100.00;101372.03;5095312;28;20136;-87
2022/09/18 08:25:49;;;;;;;6.03;1.20;;;;;;;12.02;100.00;101376.22;5095059;28;20026;-87
2022/09/18 08:28:14;;;;;;;8.10;1.50;;;;;;;11.97;100.00;101370.56;5095146;28;20035;-86
2022/09/18 08:30:42;;;;;;;5.50;1.40;;;;;;;11.91;100.00;101387.69;5078730;28;20040;-86
2022/09/18 08:33:09;;;;;;;8.35;1.77;;;;;;;11.83;100.00;101393.38;5077996;28;20073;-86
2022/09/18 08:35:35;;;;;;;7.53;1.90;;;;;;;11.65;100.00;101385.84;5094931;28;20050;-85
2022/09/18 08:38:03;;;;;;;8.70;1.73;;;;;;;11.49;100.00;101379.78;5078171;28;20028;-85
2022/09/18 08:40:40;;;;;;;9.60;1.90;;;;;;;11.48;100.00;101393.56;5132608;27;20466;-86
2022/09/18 08:43:16;;;;;;;8.33;2.07;;;;;;;11.45;100.00;101394.00;5137374;27;20065;-85
2022/09/18 08:45:55;;;;;;;4.03;1.60;;;;;;;11.38;100.00;101394.84;5136430;27;20074;-85
2022/09/18 08:48:35;;;;;;;8.85;1.92;;;;;;;11.35;100.00;101387.09;5156156;27;20030;-85
2022/09/18 08:51:27;;;;;;;4.68;1.90;;;;;;;11.41;100.00;101386.25;5136879;27;20034;-85
2022/09/18 08:54:00;;;;;;;10.07;2.20;;;;;;;11.40;100.00;101381.03;5136611;27;20026;-85
2022/09/18 08:56:26;;;;;;;9.30;2.00;;;;;;;11.38;100.00;101386.69;5137183;27;20092;-85
2022/09/18 08:59:04;;;;;;;7.75;1.77;;;;;;;11.45;100.00;101391.28;5136461;27;20482;-85
2022/09/18 09:02:02;;;;;;;8.50;2.10;;;;;;;11.47;100.00;101394.63;5136754;27;20073;-85
2022/09/18 09:04:28;;;;;;;4.65;1.52;;;;;;;11.45;100.00;101391.28;5136534;27;20092;-86
2022/09/18 09:07:21;;;;;;;4.53;1.80;;;;;;;11.44;100.00;101400.47;5136800;27;20035;-85
2022/09/18 09:10:33;;;;;;;8.15;2.00;;;;;;;11.46;100.00;101392.97;5137532;27;20031;-86
2022/09/18 09:13:27;;;;;;;7.22;1.83;;;;;;;11.40;100.00;101391.91;5137324;27;20027;-86
2022/09/18 09:16:01;;;;;;;5.32;1.88;;;;;;;11.41;100.00;101385.41;5136556;27;20033;-85
2022/09/18 09:18:29;;;;;;;7.22;2.25;;;;;;;11.48;100.00;101380.81;5136180;27;20026;-86
2022/09/18 09:21:02;;;;;;;7.57;2.33;;;;;;;11.54;100.00;101379.16;5136641;27;20385;-86
2022/09/18 09:23:56;;;;;;;6.65;2.50;;;;;;;11.65;100.00;101385.84;5154957;27;20106;-85
2022/09/18 09:26:23;;;;;;;9.88;2.60;;;;;;;11.68;100.00;101394.41;5136385;27;20035;-86
2022/09/18 09:28:58;;;;;;;4.90;2.45;;;;;;;11.68;100.00;101396.31;5155016;27;20026;-86
2022/09/18 09:31:31;;;;;;;8.95;2.90;;;;;;;11.70;100.00;101389.59;5136702;27;20022;-85
2022/09/18 09:34:02;;;;;;;4.60;2.10;;;;;;;11.68;100.00;101389.00;5155135;27;20019;-85
2022/09/18 09:36:30;;;;;;;3.83;2.30;;;;;;;11.57;100.00;101386.88;5136097;27;20041;-86
2022/09/18 09:39:22;;;;;;;5.45;2.55;;;;;;;11.59;100.00;101387.53;5137202;27;20031;-86
2022/09/18 09:42:04;;;;;;;5.63;2.58;;;;;;;11.58;100.00;101394.00;5155579;27;20034;-86
2022/09/18 09:44:42;;;;;;;6.25;2.75;;;;;;;11.63;100.00;101398.81;5136383;27;20051;-86
2022/09/18 09:47:27;;;;;;;10.50;3.33;;;;;;;11.72;100.00;101398.41;5141040;27;20069;-85
2022/09/18 09:49:58;;;;;;;7.55;3.95;;;;;;;11.82;100.00;101397.13;5158821;27;20053;-85
2022/09/18 09:52:28;;;;;;;10.20;3.90;;;;;;;11.84;100.00;101397.75;5140132;27;20066;-86
2022/09/18 09:55:06;;;;;;;11.50;3.80;;;;;;;11.84;100.00;101393.16;5106300;27;20023;-85
2022/09/18 09:57:46;;;;;;;6.57;3.58;;;;;;;11.91;100.00;101385.84;5139737;27;20031;-84
2022/09/18 10:00:16;;;;;;;7.80;3.10;;;;;;;11.92;100.00;101383.94;5141082;27;20054;-85
2022/09/18 10:03:16;;;;;;;7.35;3.10;;;;;;;11.96;100.00;101368.91;5123533;27;20027;-85
2022/09/18 10:06:07;;;;;;;8.00;4.03;;;;;;;12.13;100.00;101354.84;5139933;27;20431;-86
2022/09/18 10:09:03;;;;;;;9.70;3.97;;;;;;;12.26;100.00;101355.66;5139914;27;20027;-85
2022/09/18 10:11:34;;;;;;;8.07;3.70;;;;;;;12.41;100.00;101344.50;5139579;27;20034;-85
2022/09/18 10:14:17;;;;;;;6.40;3.03;;;;;;;12.43;100.00;101350.56;5158770;27;20030;-85
2022/09/18 10:16:49;;;;;;;5.78;2.17;;;;;;;12.39;100.00;101354.78;5140099;27;20466;-85
2022/09/18 10:19:19;;;;;;;6.85;2.28;;;;;;;12.47;100.00;101350.97;5158444;27;20035;-85
2022/09/18 10:21:46;;;;;;;5.65;2.35;;;;;;;12.66;100.00;101356.56;5139348;27;20027;-86
2022/09/18 10:24:26;;;;;;;5.15;2.20;;;;;;;12.73;100.00;101357.34;5139255;27;20035;-85
2022/09/18 10:27:12;;;;;;;6.27;2.43;;;;;;;12.78;100.00;101352.06;5139875;27;20385;-85
2022/09/18 10:29:38;;;;;;;5.72;1.67;;;;;;;12.71;100.00;101359.44;5158530;27;20461;-86
2022/09/18 10:32:05;;;;;;;4.13;1.40;;;;;;;12.76;100.00;101355.03;5139343;27;20038;-86
2022/09/18 10:34:48;;;;;;;5.53;1.70;;;;;;;12.76;100.00;101360.47;5139702;27;20522;-86
2022/09/18 10:37:28;;;;;;;7.90;1.60;;;;;;;12.72;100.00;101366.56;5139250;27;20033;-85
2022/09/18 10:40:01;;;;;;;4.87;1.57;;;;;;;12.73;100.00;101351.91;5139422;27;20041;-86
2022/09/18 10:42:29;;;;;;;2.67;1.00;;;;;;;12.71;100.00;101363.03;5139643;27;20130;-86
2022/09/18 10:45:01;;;;;;;6.78;1.00;;;;;;;12.63;100.00;101355.09;5135538;27;20043;-86
2022/09/18 10:47:39;;;;;;;3.65;0.90;;;;;;;12.75;100.00;101356.06;5135381;27;20416;-86
2022/09/18 10:50:07;;;;;;;5.68;1.10;;;;;;;12.82;100.00;101347.88;5135997;27;20538;-86
2022/09/18 10:52:40;;;;;;;2.20;0.93;;;;;;;12.95;100.00;101333.34;5136372;27;20031;-86
2022/09/18 10:55:08;;;;;;;6.38;1.30;;;;;;;12.95;100.00;101352.41;5118544;27;20039;-86
2022/09/18 10:57:40;;;;;;;4.50;1.55;;;;;;;12.75;100.00;101337.00;5134710;27;20031;-86
2022/09/18 11:00:14;;;;;;;4.00;2.10;;;;;;;12.72;100.00;101336.63;5135411;27;20393;-86
2022/09/18 11:03:13;;;;;;;4.20;1.98;;;;;;;12.78;100.00;101324.84;5135437;27;20175;-86
2022/09/18 11:06:02;;;;;;;6.20;2.00;;;;;;;12.97;100.00;101326.59;5135764;27;20540;-86
2022/09/18 11:08:39;;;;;;;6.45;2.00;;;;;;;12.94;100.00;101321.59;5135366;27;20092;-86
2022/09/18 11:11:26;;;;;;;9.27;2.20;;;;;;;12.85;100.00;101325.66;5134980;27;20083;-86
2022/09/18 11:13:58;;;;;;;3.78;1.55;;;;;;;12.76;100.00;101338.69;5134936;27;20019;-86
2022/09/18 11:16:27;;;;;;;5.50;1.70;;;;;;;12.63;100.00;101342.31;5135246;27;20031;-87
2022/09/18 11:19:15;;;;;;;7.40;1.70;;;;;;;12.49;100.00;101356.19;5135225;27;20470;-88
2022/09/18 11:21:49;;;;;;;3.50;1.75;;;;;;;12.36;100.00;101368.00;5135098;27;20051;-87
2022/09/18 11:24:29;;;;;;;7.03;1.42;;;;;;;12.19;100.00;101356.72;5135380;27;20383;-90
2022/09/18 11:26:57;;;;;;;8.90;3.00;;;;;;;12.03;100.00;101358.00;5135152;27;20027;-88
2022/09/18 11:29:38;;;;;;;11.82;2.83;;;;;;;11.96;100.00;101359.91;5135204;27;20520;-88
2022/09/18 11:32:26;;;;;;;8.27;2.23;;;;;;;11.98;100.00;101374.97;5134963;27;20102;-87
2022/09/18 11:34:55;;;;;;;1.40;1.00;;;;;;;11.88;100.00;101374.53;5136703;27;20062;-87
2022/09/18 11:37:54;;;;;;;3.17;0.80;;;;;;;11.68;100.00;101385.44;5134714;27;20554;-87
2022/09/18 11:40:26;;;;;;;4.07;0.88;;;;;;;11.47;100.00;101398.19;5119620;27;20035;-87
2022/09/18 11:43:13;;;;;;;2.35;0.70;;;;;;;11.34;100.00;101388.13;5136293;27;20455;-86
2022/09/18 11:46:06;;;;;;;4.93;0.77;;;;;;;11.33;100.00;101391.88;5119655;27;20386;-87
2022/09/18 11:48:43;;;;;;;3.35;0.85;;;;;;;11.27;100.00;101379.13;5135181;27;20088;-87
2022/09/18 11:51:25;;;;;;;3.05;0.82;;;;;;;11.27;100.00;101381.03;5135599;27;20079;-87
2022/09/18 11:54:03;;;;;;;5.50;1.10;;;;;;;11.33;100.00;101381.03;5135707;27;20031;-94